Time;durP1;ratioP1;P1;durP2;ratioP2;P2;SDS_P1;SDS_P2;PMS_P1;PMS_P2;Temp;Humidity;BMP_temperature;BMP_pressure;BME280_temperature;BME280_humidity;BME280_pressure;Samples;Min_cycle;Max_cycle;Signal;HPM_P1;HPM_P2
2023/07/08 00:00:52;;;;;;;4.82;3.10;;;17.40;76.90;17.40;101066.00;;;;4948885;28;93325;-68
2023/07/08 00:03:19;;;;;;;4.00;3.63;;;17.30;77.20;17.40;101064.00;;;;4946137;28;94496;-68
2023/07/08 00:05:53;;;;;;;4.78;3.35;;;17.30;77.90;17.30;101054.00;;;;4939940;28;113331;-68
2023/07/08 00:08:20;;;;;;;5.38;2.60;;;17.30;78.50;17.30;101055.00;;;;4964813;28;92505;-68
2023/07/08 00:10:47;;;;;;;3.35;2.92;;;17.20;79.00;17.20;101064.00;;;;4965208;28;108366;-68
2023/07/08 00:13:12;;;;;;;4.15;2.90;;;17.20;79.70;17.10;101059.00;;;;4966778;28;93240;-68
2023/07/08 00:15:39;;;;;;;5.28;3.78;;;17.10;80.40;17.10;101064.00;;;;4969767;28;121843;-68
2023/07/08 00:18:17;;;;;;;4.88;3.38;;;17.10;81.20;17.00;101054.00;;;;4951821;28;92932;-68
2023/07/08 00:20:49;;;;;;;3.80;3.40;;;17.00;81.90;17.00;101050.00;;;;4951645;28;93025;-68
2023/07/08 00:23:15;;;;;;;3.90;2.60;;;17.00;82.20;17.00;101056.00;;;;4963540;28;113559;-68
2023/07/08 00:25:41;;;;;;;3.80;3.50;;;16.80;82.60;16.90;101046.00;;;;4966792;28;116339;-68
2023/07/08 00:28:17;;;;;;;4.22;2.97;;;16.90;83.30;16.80;101054.00;;;;4970193;28;95980;-68
2023/07/08 00:30:43;;;;;;;4.35;3.08;;;16.80;83.90;16.80;101049.00;;;;4969792;28;93044;-68
2023/07/08 00:33:08;;;;;;;2.88;2.60;;;16.70;84.40;16.70;101049.00;;;;4970767;28;122828;-68
2023/07/08 00:35:43;;;;;;;4.15;2.95;;;16.60;84.90;16.60;101053.00;;;;4967411;28;122094;-68
2023/07/08 00:38:34;;;;;;;4.10;3.05;;;16.60;85.50;16.50;101054.00;;;;4966828;28;93007;-69
2023/07/08 00:41:05;;;;;;;3.78;3.00;;;16.60;86.10;16.60;101051.00;;;;4964103;28;106395;-67
2023/07/08 00:43:46;;;;;;;8.07;2.80;;;16.50;86.90;16.50;101060.00;;;;4965364;28;93261;-68
2023/07/08 00:46:29;;;;;;;3.25;2.65;;;16.40;87.80;16.40;101057.00;;;;4950996;28;93147;-67
2023/07/08 00:49:07;;;;;;;8.32;3.70;;;16.30;88.30;16.30;101052.00;;;;4951965;28;92967;-67
2023/07/08 00:51:39;;;;;;;3.03;2.35;;;16.30;88.80;16.30;101064.00;;;;4969695;28;93031;-67
2023/07/08 00:54:16;;;;;;;3.15;2.63;;;16.30;89.20;16.30;101065.00;;;;4968394;28;93875;-68
2023/07/08 00:56:44;;;;;;;2.92;2.35;;;16.20;89.70;16.30;101072.00;;;;4969604;28;93206;-68
2023/07/08 00:59:25;;;;;;;4.28;2.67;;;16.20;90.10;16.20;101067.00;;;;4966825;28;106553;-68
2023/07/08 01:01:51;;;;;;;3.85;3.17;;;16.20;90.30;16.20;101065.00;;;;4953230;28;93149;-68
2023/07/08 01:04:23;;;;;;;4.40;2.75;;;16.20;90.50;16.20;101060.00;;;;4965198;28;122761;-68
2023/07/08 01:06:57;;;;;;;2.78;2.30;;;16.20;90.80;16.20;101068.00;;;;4968811;28;93997;-68
2023/07/08 01:09:30;;;;;;;6.35;3.47;;;16.10;91.00;16.10;101070.00;;;;4947928;28;93052;-68
2023/07/08 01:12:02;;;;;;;3.58;3.22;;;16.00;91.40;15.90;101059.00;;;;4950586;28;92995;-68
2023/07/08 01:14:32;;;;;;;3.13;2.60;;;15.90;91.50;15.90;101061.00;;;;4962321;28;102300;-68
2023/07/08 01:16:58;;;;;;;3.47;2.50;;;15.80;91.70;15.80;101056.00;;;;4971240;28;110072;-68
2023/07/08 01:19:32;;;;;;;2.95;2.55;;;15.80;91.90;15.80;101058.00;;;;4967597;28;100604;-68
2023/07/08 01:22:00;;;;;;;3.50;2.80;;;15.80;92.00;15.80;101056.00;;;;4953058;28;93024;-68
2023/07/08 01:24:29;;;;;;;3.42;3.13;;;15.70;92.00;15.70;101052.00;;;;4968448;28;92971;-68
2023/07/08 01:26:55;;;;;;;4.43;3.50;;;15.70;92.30;15.70;101057.00;;;;4932282;28;111938;-68
2023/07/08 01:29:21;;;;;;;3.40;2.67;;;15.60;92.40;15.70;101051.00;;;;4968074;28;109781;-68
2023/07/08 01:31:48;;;;;;;3.25;2.97;;;15.60;92.50;15.70;101046.00;;;;4968100;28;99325;-68
2023/07/08 01:34:16;;;;;;;3.10;2.88;;;15.60;92.60;15.70;101056.00;;;;4951489;28;93176;-69
2023/07/08 01:36:52;;;;;;;4.70;2.92;;;15.60;92.90;15.60;101051.00;;;;4964556;28;92911;-70
2023/07/08 01:39:21;;;;;;;2.33;2.13;;;15.60;92.90;15.60;101061.00;;;;4950839;28;92854;-69
2023/07/08 01:41:47;;;;;;;2.67;2.13;;;15.60;93.00;15.60;101054.00;;;;4968742;28;93132;-69
2023/07/08 01:44:35;;;;;;;3.00;2.70;;;15.50;93.10;15.50;101050.00;;;;4966192;28;93311;-68
2023/07/08 01:47:18;;;;;;;3.55;3.13;;;15.50;93.20;15.50;101045.00;;;;4949258;28;92980;-69
2023/07/08 01:49:46;;;;;;;3.70;2.67;;;15.40;93.20;15.50;101037.00;;;;4964101;28;103396;-68
2023/07/08 01:52:14;;;;;;;3.10;2.80;;;15.40;93.40;15.50;101038.00;;;;4968827;28;92788;-68
2023/07/08 01:54:40;;;;;;;2.42;2.22;;;15.40;93.50;15.50;101038.00;;;;4942857;28;111012;-68
2023/07/08 01:57:05;;;;;;;3.80;2.78;;;15.40;93.70;15.40;101036.00;;;;4947732;28;121701;-68
2023/07/08 01:59:31;;;;;;;4.43;3.08;;;15.40;93.80;15.40;101040.00;;;;4970597;28;98092;-68
2023/07/08 02:01:57;;;;;;;4.53;3.20;;;15.40;93.90;15.40;101039.00;;;;4964191;28;107680;-68
2023/07/08 02:04:25;;;;;;;3.00;2.70;;;15.40;94.00;15.40;101038.00;;;;4966360;28;123204;-68
2023/07/08 02:06:55;;;;;;;2.50;2.30;;;15.30;94.10;15.30;101048.00;;;;4969258;28;93463;-68
2023/07/08 02:09:22;;;;;;;1.95;1.75;;;15.30;94.20;15.30;101042.00;;;;4970696;28;93251;-68
2023/07/08 02:11:47;;;;;;;3.72;3.15;;;15.30;94.30;15.20;101042.00;;;;4954471;28;93154;-68
2023/07/08 02:14:13;;;;;;;4.40;3.05;;;15.20;94.50;15.20;101038.00;;;;4968707;28;122139;-68
2023/07/08 02:16:39;;;;;;;4.70;2.65;;;15.10;94.80;15.10;101033.00;;;;4970741;28;111722;-69
2023/07/08 02:19:05;;;;;;;3.72;2.83;;;15.10;94.90;15.10;101039.00;;;;4967696;28;109271;-69
2023/07/08 02:21:31;;;;;;;5.82;3.10;;;15.10;95.10;15.10;101032.00;;;;4969326;28;108829;-69
2023/07/08 02:23:57;;;;;;;3.00;2.75;;;15.00;95.20;15.00;101037.00;;;;4972032;28;93983;-69
2023/07/08 02:26:23;;;;;;;4.50;2.75;;;15.00;95.40;15.00;101032.00;;;;4972446;28;122284;-68
2023/07/08 02:28:49;;;;;;;5.85;2.97;;;15.00;95.60;15.00;101030.00;;;;4952408;28;92934;-68
2023/07/08 02:31:15;;;;;;;4.43;4.03;;;15.00;95.80;15.00;101028.00;;;;4970349;28;108912;-68
2023/07/08 02:33:41;;;;;;;3.60;3.15;;;14.90;95.90;14.90;101028.00;;;;4968791;28;122275;-69
2023/07/08 02:36:06;;;;;;;4.88;3.38;;;14.90;96.00;14.90;101028.00;;;;4970720;28;122898;-69
2023/07/08 02:38:32;;;;;;;3.97;3.17;;;14.80;96.10;14.90;101024.00;;;;4968540;28;92265;-68
2023/07/08 02:41:01;;;;;;;3.85;2.97;;;14.80;96.30;14.90;101027.00;;;;4971225;28;109693;-69
2023/07/08 02:43:33;;;;;;;2.97;2.78;;;14.80;96.50;14.80;101019.00;;;;4969362;28;123399;-69
2023/07/08 02:45:58;;;;;;;3.15;2.88;;;14.80;96.80;14.80;101019.00;;;;4970078;28;115173;-69
2023/07/08 02:48:24;;;;;;;2.93;2.53;;;14.80;97.10;14.70;101022.00;;;;4968835;28;109430;-68
2023/07/08 02:50:50;;;;;;;4.80;3.33;;;14.70;97.20;14.70;101025.00;;;;4968210;28;109366;-68
2023/07/08 02:53:15;;;;;;;2.60;2.40;;;14.60;97.40;14.60;101017.00;;;;4973681;28;123730;-68
2023/07/08 02:55:42;;;;;;;6.45;3.28;;;14.60;97.50;14.60;101021.00;;;;4971885;28;116262;-68
2023/07/08 02:58:11;;;;;;;3.47;2.67;;;14.60;97.70;14.60;101026.00;;;;4971413;28;92888;-68
2023/07/08 03:00:37;;;;;;;4.82;3.38;;;14.60;97.90;14.60;101018.00;;;;4967748;28;109818;-68
2023/07/08 03:03:04;;;;;;;3.33;3.03;;;14.50;98.00;14.60;101021.00;;;;4967244;28;93314;-69
2023/07/08 03:05:30;;;;;;;3.87;2.80;;;14.50;98.20;14.50;101021.00;;;;4970397;28;93392;-68
2023/07/08 03:07:56;;;;;;;3.70;3.08;;;14.50;98.50;14.50;101022.00;;;;4970541;28;93090;-69
2023/07/08 03:10:22;;;;;;;4.47;2.50;;;14.50;98.70;14.40;101018.00;;;;4972046;28;93940;-68
2023/07/08 03:12:47;;;;;;;3.70;3.05;;;14.40;98.90;14.40;101014.00;;;;4971482;28;116895;-69
2023/07/08 03:15:13;;;;;;;3.73;3.00;;;14.30;99.20;14.30;101015.00;;;;4967228;28;121971;-69
2023/07/08 03:17:40;;;;;;;2.73;2.53;;;14.30;99.60;14.30;101016.00;;;;4968666;28;93213;-68
2023/07/08 03:20:07;;;;;;;5.20;3.50;;;14.30;99.90;14.30;101007.00;;;;4966689;28;93062;-68
2023/07/08 03:22:32;;;;;;;4.27;3.17;;;14.20;99.90;14.30;101005.00;;;;4959962;28;94815;-68
2023/07/08 03:24:58;;;;;;;3.33;3.03;;;14.20;99.90;14.30;101007.00;;;;4969016;28;122213;-68
2023/07/08 03:27:24;;;;;;;2.67;2.47;;;14.30;99.90;14.30;101010.00;;;;4967711;28;111402;-68
2023/07/08 03:29:49;;;;;;;4.87;3.60;;;14.20;99.90;14.30;101003.00;;;;4969052;28;107880;-68
2023/07/08 03:32:15;;;;;;;5.47;3.77;;;14.20;99.90;14.30;101006.00;;;;4967111;28;122341;-69
2023/07/08 03:34:41;;;;;;;4.05;3.20;;;14.20;99.90;14.30;101006.00;;;;4968755;28;98789;-68
2023/07/08 03:37:08;;;;;;;4.27;3.60;;;14.20;99.90;14.30;101010.00;;;;4968831;28;98184;-68
2023/07/08 03:39:34;;;;;;;3.67;2.90;;;14.20;99.90;14.20;101017.00;;;;4968810;28;93130;-68
2023/07/08 03:42:00;;;;;;;4.00;3.10;;;14.20;99.90;14.20;101028.00;;;;4967199;28;105336;-68
2023/07/08 03:44:26;;;;;;;3.57;2.60;;;14.20;99.90;14.30;101024.00;;;;4967257;28;93278;-68
2023/07/08 03:46:51;;;;;;;2.77;2.37;;;14.20;99.90;14.30;101016.00;;;;4969930;28;93061;-68
2023/07/08 03:49:21;;;;;;;4.07;3.10;;;14.20;99.90;14.30;101022.00;;;;4966872;28;92968;-68
2023/07/08 03:51:48;;;;;;;3.50;2.93;;;14.30;99.90;14.40;101024.00;;;;4965260;28;92440;-68
2023/07/08 03:54:15;;;;;;;4.20;3.47;;;14.30;99.90;14.50;101023.00;;;;4969959;28;113920;-68
2023/07/08 03:56:41;;;;;;;5.00;3.05;;;14.40;99.90;14.50;101024.00;;;;4968091;28;92983;-68
2023/07/08 03:59:07;;;;;;;5.95;3.38;;;14.40;99.90;14.60;101029.00;;;;4932519;28;102955;-68
2023/07/08 04:01:33;;;;;;;4.50;2.40;;;14.50;99.90;14.70;101026.00;;;;4971798;28;93632;-68
2023/07/08 04:03:59;;;;;;;3.40;3.10;;;14.60;99.90;14.80;101026.00;;;;4966524;28;122021;-68
2023/07/08 04:06:28;;;;;;;3.25;2.95;;;14.70;99.90;14.90;101028.00;;;;4970546;28;92975;-68
2023/07/08 04:08:54;;;;;;;3.35;3.00;;;14.80;99.90;15.00;101033.00;;;;4966108;28;93187;-69
2023/07/08 04:11:23;;;;;;;4.53;3.47;;;14.80;99.90;15.10;101026.00;;;;4951175;28;97760;-68
2023/07/08 04:13:50;;;;;;;4.00;3.33;;;15.00;99.90;15.20;101018.00;;;;4971702;28;104402;-68
2023/07/08 04:16:36;;;;;;;4.55;3.05;;;15.10;99.90;15.30;101030.00;;;;4968821;28;92099;-68
2023/07/08 04:19:02;;;;;;;2.65;2.45;;;15.20;99.90;15.40;101029.00;;;;4951724;28;93273;-68
2023/07/08 04:21:29;;;;;;;5.03;3.10;;;15.30;99.90;15.50;101023.00;;;;4968027;28;123664;-69
2023/07/08 04:23:55;;;;;;;2.90;2.58;;;15.40;99.90;15.60;101030.00;;;;4966050;28;93984;-69
2023/07/08 04:26:21;;;;;;;3.15;2.80;;;15.50;99.90;15.80;101031.00;;;;4968103;28;110441;-68
2023/07/08 04:28:46;;;;;;;3.65;2.75;;;15.60;99.90;15.90;101034.00;;;;4966785;28;94988;-69
2023/07/08 04:31:12;;;;;;;3.28;2.38;;;15.80;99.90;16.00;101032.00;;;;4966935;28;96125;-68
2023/07/08 04:33:38;;;;;;;4.00;3.10;;;15.90;99.90;16.20;101024.00;;;;4983461;28;113064;-67
2023/07/08 04:36:10;;;;;;;3.30;3.10;;;15.90;99.90;16.30;101027.00;;;;4954889;28;93011;-69
2023/07/08 04:38:36;;;;;;;3.60;2.63;;;16.10;99.90;16.50;101030.00;;;;4967501;28;95364;-69
2023/07/08 04:41:02;;;;;;;4.10;2.95;;;16.30;99.90;16.70;101034.00;;;;4965454;28;92290;-69
2023/07/08 04:43:28;;;;;;;2.28;2.10;;;16.50;99.90;16.80;101029.00;;;;4972096;28;122916;-69
2023/07/08 04:45:54;;;;;;;4.38;3.13;;;16.60;99.90;17.00;101027.00;;;;4968678;28;92944;-69
2023/07/08 04:48:21;;;;;;;3.15;2.60;;;16.80;99.90;17.20;101029.00;;;;4949104;28;93879;-70
2023/07/08 04:50:51;;;;;;;3.47;2.03;;;17.00;99.90;17.40;101024.00;;;;4967323;28;93916;-69
2023/07/08 04:53:20;;;;;;;4.80;2.53;;;17.20;99.90;17.50;101018.00;;;;4951271;28;93034;-69
2023/07/08 04:55:53;;;;;;;3.22;2.20;;;17.40;99.90;17.70;101023.00;;;;4949621;28;94585;-69
2023/07/08 04:58:19;;;;;;;3.15;2.25;;;17.50;99.90;17.90;101025.00;;;;4968365;28;96325;-69
2023/07/08 05:00:45;;;;;;;5.30;2.97;;;17.70;99.90;18.10;101021.00;;;;4965944;28;123007;-69
2023/07/08 05:03:11;;;;;;;3.33;2.63;;;17.90;99.90;18.30;101019.00;;;;4967020;28;93673;-69
2023/07/08 05:05:36;;;;;;;3.80;2.63;;;18.10;99.90;18.50;101030.00;;;;4964017;28;109945;-69
2023/07/08 05:08:02;;;;;;;3.92;2.75;;;18.30;99.90;18.70;101035.00;;;;4968552;28;109240;-69
2023/07/08 05:10:28;;;;;;;2.22;2.03;;;18.50;99.90;18.90;101035.00;;;;4964553;28;96043;-70
2023/07/08 05:12:53;;;;;;;3.20;2.50;;;18.70;99.90;19.10;101033.00;;;;4970085;28;121789;-70
2023/07/08 05:15:19;;;;;;;2.72;1.98;;;18.80;99.60;19.20;101039.00;;;;4946928;28;111064;-69
2023/07/08 05:17:45;;;;;;;2.92;2.00;;;19.00;99.30;19.50;101037.00;;;;4965903;28;108784;-69
2023/07/08 05:20:14;;;;;;;3.55;2.72;;;19.20;99.00;19.70;101041.00;;;;4961971;28;122862;-69
2023/07/08 05:22:41;;;;;;;2.10;1.90;;;19.40;98.60;19.90;101042.00;;;;4937987;28;93080;-69
2023/07/08 05:25:07;;;;;;;3.20;2.90;;;19.60;98.10;20.10;101043.00;;;;4963579;28;92934;-69
2023/07/08 05:27:35;;;;;;;6.63;2.33;;;19.80;98.00;20.30;101040.00;;;;4965823;28;93091;-69
2023/07/08 05:30:02;;;;;;;2.65;2.45;;;20.10;97.30;20.50;101034.00;;;;4963650;28;92290;-69
2023/07/08 05:32:28;;;;;;;4.70;2.78;;;20.30;96.70;20.80;101039.00;;;;4975962;28;95339;-70
2023/07/08 05:34:54;;;;;;;3.80;2.70;;;20.50;96.20;21.00;101041.00;;;;4963280;28;94084;-70
2023/07/08 05:37:24;;;;;;;3.83;2.72;;;20.70;95.90;21.20;101046.00;;;;4961424;28;94081;-69
2023/07/08 05:39:53;;;;;;;3.75;2.50;;;21.00;95.50;21.50;101053.00;;;;4963346;28;92939;-70
2023/07/08 05:42:22;;;;;;;2.38;2.15;;;21.20;95.20;21.70;101054.00;;;;4965097;28;93133;-70
2023/07/08 05:44:48;;;;;;;2.67;2.17;;;21.40;94.80;21.90;101055.00;;;;4962117;28;107958;-70
2023/07/08 05:47:15;;;;;;;3.42;2.50;;;21.70;94.40;22.10;101053.00;;;;4966053;28;108159;-70
2023/07/08 05:49:41;;;;;;;3.67;2.33;;;21.90;93.90;22.40;101053.00;;;;4966074;28;124194;-69
2023/07/08 05:52:27;;;;;;;2.38;2.13;;;22.10;93.40;22.60;101060.00;;;;4968094;28;94047;-69
2023/07/08 05:54:53;;;;;;;1.58;1.48;;;22.40;93.00;22.90;101057.00;;;;4961759;28;91946;-69
2023/07/08 05:57:18;;;;;;;2.38;2.17;;;22.60;92.40;23.10;101068.00;;;;4964386;28;92824;-68
2023/07/08 05:59:44;;;;;;;2.20;1.98;;;22.80;91.90;23.30;101070.00;;;;4963741;28;122493;-69
2023/07/08 06:02:12;;;;;;;3.55;2.63;;;23.10;91.20;23.50;101067.00;;;;4965515;28;119798;-69
2023/07/08 06:04:39;;;;;;;2.05;1.85;;;23.30;90.70;23.70;101067.00;;;;4969133;28;94289;-69
2023/07/08 06:07:05;;;;;;;3.03;2.50;;;23.50;90.20;24.00;101071.00;;;;4968438;28;100036;-69
2023/07/08 06:09:30;;;;;;;2.42;2.13;;;23.70;88.90;24.20;101073.00;;;;4968327;28;115003;-69
2023/07/08 06:11:56;;;;;;;2.45;2.00;;;23.90;87.50;24.40;101074.00;;;;4966283;28;123618;-69
2023/07/08 06:14:22;;;;;;;2.28;1.90;;;24.10;86.00;24.60;101078.00;;;;4962896;28;111199;-69
2023/07/08 06:16:51;;;;;;;3.22;1.85;;;24.30;84.90;24.80;101078.00;;;;4964807;28;109094;-69
2023/07/08 06:19:17;;;;;;;2.33;2.17;;;24.60;83.30;25.10;101076.00;;;;4968678;28;93342;-69
2023/07/08 06:21:43;;;;;;;3.45;2.05;;;24.80;82.40;25.30;101073.00;;;;4964809;28;121934;-69
2023/07/08 06:24:09;;;;;;;3.83;2.08;;;25.00;81.30;25.50;101077.00;;;;4967261;28;94516;-69
2023/07/08 06:26:35;;;;;;;3.50;1.88;;;25.30;80.20;25.80;101077.00;;;;4966171;28;98183;-69
2023/07/08 06:29:00;;;;;;;2.25;2.05;;;25.50;78.90;26.00;101067.00;;;;4967877;28;93740;-69
2023/07/08 06:31:26;;;;;;;4.38;1.88;;;25.70;77.40;26.20;101073.00;;;;4966884;28;123500;-69
2023/07/08 06:33:51;;;;;;;1.60;1.50;;;25.90;75.10;26.50;101074.00;;;;4967993;28;110815;-70
2023/07/08 06:36:17;;;;;;;1.40;1.30;;;26.20;73.30;26.70;101076.00;;;;4968928;28;108788;-70
2023/07/08 06:38:43;;;;;;;2.90;1.95;;;26.40;69.60;26.90;101082.00;;;;4967103;28;92977;-70
2023/07/08 06:41:09;;;;;;;2.80;1.83;;;26.60;67.80;27.00;101084.00;;;;4965660;28;93008;-69
2023/07/08 06:43:34;;;;;;;2.58;1.33;;;26.70;67.20;27.20;101087.00;;;;4968867;28;109609;-69
2023/07/08 06:46:00;;;;;;;1.83;1.58;;;26.90;66.20;27.40;101074.00;;;;4963880;28;108775;-69
2023/07/08 06:48:26;;;;;;;1.80;1.35;;;27.10;63.80;27.60;101082.00;;;;4966887;28;94224;-69
2023/07/08 06:50:51;;;;;;;2.40;1.60;;;27.30;62.60;27.80;101078.00;;;;4965322;28;122620;-69
2023/07/08 06:53:17;;;;;;;1.83;1.40;;;27.50;62.10;28.00;101066.00;;;;4966464;28;110542;-69
2023/07/08 06:55:46;;;;;;;1.88;1.60;;;27.70;61.30;28.20;101069.00;;;;4965200;28;93130;-69
2023/07/08 06:58:12;;;;;;;2.55;1.90;;;27.90;60.50;28.50;101081.00;;;;4964027;28;99429;-69
2023/07/08 07:00:41;;;;;;;3.03;1.42;;;28.10;59.60;28.70;101085.00;;;;4965374;28;106725;-69
2023/07/08 07:03:07;;;;;;;2.15;1.30;;;28.30;58.60;28.90;101089.00;;;;4967463;28;93051;-68
2023/07/08 07:05:33;;;;;;;2.83;2.08;;;28.60;57.70;29.10;101082.00;;;;4961810;28;108712;-69
2023/07/08 07:07:58;;;;;;;2.28;1.90;;;28.70;56.70;29.20;101082.00;;;;4965607;28;92578;-68
2023/07/08 07:10:24;;;;;;;2.20;2.00;;;28.90;55.90;29.30;101083.00;;;;4965524;28;120688;-69
2023/07/08 07:12:50;;;;;;;2.60;1.73;;;29.00;55.40;29.50;101070.00;;;;4966424;28;111065;-69
2023/07/08 07:15:15;;;;;;;2.17;1.25;;;29.20;55.20;29.70;101070.00;;;;4964265;28;108829;-68
2023/07/08 07:17:41;;;;;;;2.80;2.20;;;29.40;54.60;29.90;101079.00;;;;4963395;28;93906;-69
2023/07/08 07:20:08;;;;;;;3.00;1.75;;;29.50;54.00;30.10;101065.00;;;;4963592;28;123214;-69
2023/07/08 07:22:34;;;;;;;2.42;1.45;;;29.80;53.30;30.30;101068.00;;;;4955214;28;92909;-68
2023/07/08 07:25:00;;;;;;;1.73;1.40;;;30.00;52.90;30.50;101067.00;;;;4964212;28;95294;-68
2023/07/08 07:27:25;;;;;;;2.83;1.50;;;30.20;52.30;30.70;101071.00;;;;4967833;28;116595;-70
2023/07/08 07:29:52;;;;;;;2.03;1.50;;;30.40;51.80;30.90;101069.00;;;;4965789;28;109480;-72
2023/07/08 07:32:25;;;;;;;3.35;1.67;;;30.60;51.80;31.10;101054.00;;;;4969866;28;93236;-71
2023/07/08 07:34:51;;;;;;;3.95;1.30;;;30.70;50.60;31.20;101061.00;;;;4964280;28;93049;-72
2023/07/08 07:37:20;;;;;;;2.63;1.52;;;30.90;50.00;31.40;101066.00;;;;4963900;28;122647;-70
2023/07/08 07:39:46;;;;;;;2.15;1.50;;;31.10;48.30;31.50;101059.00;;;;4946706;28;99284;-71
2023/07/08 07:42:15;;;;;;;1.20;1.10;;;31.20;48.20;31.60;101072.00;;;;4932647;28;98540;-70
2023/07/08 07:44:41;;;;;;;1.98;1.77;;;31.30;47.90;31.80;101065.00;;;;4931647;28;101800;-72
2023/07/08 07:47:08;;;;;;;3.67;1.75;;;31.50;47.60;31.90;101072.00;;;;4966385;28;108910;-72
2023/07/08 07:49:35;;;;;;;1.92;1.33;;;32.30;46.90;32.00;101073.00;;;;4946237;28;111879;-71
2023/07/08 07:52:01;;;;;;;4.53;1.33;;;31.60;46.50;32.10;101077.00;;;;4965417;28;93119;-72
2023/07/08 07:54:27;;;;;;;2.42;1.30;;;31.80;46.10;32.20;101068.00;;;;4965485;28;93569;-70
2023/07/08 07:56:53;;;;;;;1.55;1.42;;;31.90;45.30;32.20;101070.00;;;;4956130;28;100559;-71
2023/07/08 07:59:19;;;;;;;5.85;4.88;;;31.80;44.90;32.20;101069.00;;;;4956950;28;121065;-72
2023/07/08 08:01:44;;;;;;;4.72;4.25;;;31.90;44.80;32.30;101077.00;;;;4963193;28;110022;-72
2023/07/08 08:04:10;;;;;;;8.15;6.78;;;32.10;45.20;32.40;101067.00;;;;4963280;28;108481;-73
2023/07/08 08:06:37;;;;;;;10.00;5.43;;;32.10;45.10;32.60;101069.00;;;;4966902;28;93479;-73
2023/07/08 08:09:04;;;;;;;10.57;8.75;;;32.20;44.20;32.60;101069.00;;;;4961114;28;93297;-73
2023/07/08 08:11:30;;;;;;;3.90;2.53;;;31.90;43.90;32.70;101069.00;;;;4965824;28;95327;-71
2023/07/08 08:13:57;;;;;;;3.28;1.83;;;32.30;44.00;32.80;101074.00;;;;4964494;28;92866;-73
2023/07/08 08:16:23;;;;;;;2.72;2.05;;;32.50;43.80;32.80;101071.00;;;;4949036;28;94864;-69
2023/07/08 08:18:49;;;;;;;1.90;1.77;;;32.50;43.20;32.90;101077.00;;;;4963494;28;123287;-70
2023/07/08 08:21:15;;;;;;;2.15;1.55;;;32.50;43.40;33.00;101078.00;;;;4964411;28;93245;-71
2023/07/08 08:23:50;;;;;;;1.73;1.17;;;32.70;43.50;33.20;101069.00;;;;4944564;28;107859;-72
2023/07/08 08:26:15;;;;;;;5.25;2.10;;;32.80;43.50;33.30;101080.00;;;;4960320;28;118981;-71
2023/07/08 08:28:41;;;;;;;2.30;2.15;;;33.00;43.30;33.50;101078.00;;;;4966141;28;120026;-70
2023/07/08 08:31:07;;;;;;;2.35;1.60;;;33.10;42.90;33.60;101073.00;;;;4960038;28;111583;-72
2023/07/08 08:33:32;;;;;;;2.40;1.65;;;33.20;41.90;33.60;101084.00;;;;4962611;28;93082;-69
2023/07/08 08:35:58;;;;;;;5.13;3.63;;;33.30;42.00;33.70;101077.00;;;;4962919;28;94371;-71
2023/07/08 08:38:24;;;;;;;5.00;3.63;;;33.40;41.80;33.80;101081.00;;;;4964388;28;122555;-72
2023/07/08 08:40:49;;;;;;;11.57;8.20;;;33.40;41.80;33.90;101082.00;;;;4961337;28;111217;-71
2023/07/08 08:43:22;;;;;;;3.80;2.88;;;33.50;41.90;34.10;101087.00;;;;4961861;28;107441;-73
2023/07/08 08:46:16;;;;;;;2.13;1.88;;;33.70;41.70;34.20;101083.00;;;;4964368;28;92221;-72
2023/07/08 08:49:35;;;;;;;2.35;1.75;;;33.80;41.10;34.40;101086.00;;;;4951178;28;93479;-70
2023/07/08 08:52:01;;;;;;;4.63;2.25;;;34.00;41.00;34.60;101092.00;;;;4936604;28;93225;-72
2023/07/08 08:54:29;;;;;;;1.88;1.63;;;34.20;40.90;34.80;101088.00;;;;4962178;28;93903;-73
2023/07/08 08:57:15;;;;;;;2.42;1.52;;;34.30;40.60;35.00;101087.00;;;;4928853;28;115724;-72
2023/07/08 08:59:52;;;;;;;3.10;2.67;;;34.50;40.20;35.10;101083.00;;;;4927281;28;110011;-72
2023/07/08 09:03:16;;;;;;;2.65;1.40;;;34.70;39.90;35.30;101079.00;;;;4943431;28;94294;-73
2023/07/08 09:05:45;;;;;;;2.55;1.75;;;34.90;39.60;35.30;101078.00;;;;4882711;28;93176;-71
2023/07/08 09:08:34;;;;;;;5.68;3.63;;;35.00;39.50;35.40;101094.00;;;;4887007;28;94125;-70
2023/07/08 09:11:11;;;;;;;2.03;1.63;;;35.00;38.60;35.50;101071.00;;;;4918066;28;94599;-71
2023/07/08 09:13:37;;;;;;;3.30;3.00;;;35.10;38.50;35.60;101072.00;;;;4964439;28;92167;-71
2023/07/08 09:16:41;;;;;;;1.95;1.10;;;35.20;38.50;35.80;101078.00;;;;4962142;28;93274;-71
2023/07/08 09:19:13;;;;;;;1.85;1.67;;;35.30;37.70;35.90;101079.00;;;;4959138;28;114063;-71
2023/07/08 09:22:00;;;;;;;1.63;1.50;;;35.40;37.40;35.90;101075.00;;;;4960717;28;95197;-72
2023/07/08 09:24:31;;;;;;;1.88;1.63;;;35.50;37.50;36.00;101072.00;;;;4956589;28;92867;-73
2023/07/08 09:27:00;;;;;;;7.15;5.43;;;35.60;37.60;36.10;101078.00;;;;4962729;28;100423;-72
2023/07/08 09:29:26;;;;;;;4.70;2.33;;;35.60;37.40;36.30;101071.00;;;;4944058;28;93024;-72
2023/07/08 09:31:52;;;;;;;1.92;1.50;;;35.80;37.20;36.30;101073.00;;;;4963581;28;93324;-72
2023/07/08 09:34:37;;;;;;;2.70;1.70;;;35.90;37.00;36.40;101072.00;;;;4962330;28;110627;-71
2023/07/08 09:37:03;;;;;;;2.67;1.45;;;36.00;36.80;36.50;101070.00;;;;4960779;28;93215;-71
2023/07/08 09:39:30;;;;;;;1.55;1.10;;;36.10;36.70;36.60;101068.00;;;;4945556;28;112396;-72
2023/07/08 09:41:55;;;;;;;2.33;1.40;;;36.10;36.50;36.70;101070.00;;;;4947100;28;94730;-71
2023/07/08 09:44:29;;;;;;;1.85;1.30;;;36.30;36.40;36.80;101071.00;;;;4961134;28;110453;-72
2023/07/08 09:46:58;;;;;;;1.30;1.20;;;36.40;36.20;36.90;101074.00;;;;4960436;28;93908;-70
2023/07/08 09:49:35;;;;;;;1.27;1.05;;;36.40;35.90;37.00;101079.00;;;;4960376;28;94156;-73
2023/07/08 09:52:02;;;;;;;1.45;0.90;;;36.50;35.30;37.20;101077.00;;;;4962231;28;110878;-73
2023/07/08 09:54:30;;;;;;;1.65;1.45;;;36.60;35.00;37.30;101078.00;;;;4944488;28;103443;-71
2023/07/08 09:57:04;;;;;;;1.42;1.17;;;36.80;34.90;37.40;101076.00;;;;4964431;28;92817;-73
2023/07/08 09:59:34;;;;;;;4.00;1.10;;;36.90;34.60;37.60;101081.00;;;;4943896;28;93070;-70
2023/07/08 10:02:04;;;;;;;1.83;1.48;;;37.10;34.00;37.80;101080.00;;;;4958557;28;101294;-71
2023/07/08 10:04:30;;;;;;;1.63;1.15;;;37.20;33.80;37.90;101078.00;;;;4929788;28;92322;-71
2023/07/08 10:06:56;;;;;;;1.25;1.15;;;37.30;33.40;38.00;101069.00;;;;4961337;28;108546;-72
2023/07/08 10:09:25;;;;;;;1.77;1.05;;;37.40;33.30;38.10;101076.00;;;;4966226;28;92982;-71
2023/07/08 10:12:04;;;;;;;1.27;1.13;;;37.50;32.80;38.20;101073.00;;;;4959114;28;123124;-70
2023/07/08 10:15:03;;;;;;;2.22;1.13;;;37.60;32.50;38.50;101075.00;;;;4950423;28;93055;-72
2023/07/08 10:17:30;;;;;;;1.10;0.80;;;37.90;32.10;38.70;101066.00;;;;4941803;28;93283;-71
2023/07/08 10:19:55;;;;;;;2.67;1.40;;;38.10;30.70;38.70;101069.00;;;;4946489;28;93241;-73
2023/07/08 10:22:36;;;;;;;1.42;0.80;;;38.10;30.00;38.60;101067.00;;;;4960052;28;93092;-73
2023/07/08 10:25:43;;;;;;;1.45;1.05;;;38.00;30.20;38.60;101058.00;;;;4961251;28;93441;-73
2023/07/08 10:28:53;;;;;;;1.50;1.38;;;38.00;29.80;38.70;101057.00;;;;4960162;28;103319;-73
2023/07/08 10:31:32;;;;;;;3.05;1.40;;;38.00;29.60;38.70;101067.00;;;;4950629;28;106950;-71
2023/07/08 10:34:27;;;;;;;1.55;1.23;;;38.00;29.20;38.80;101061.00;;;;4949678;28;106621;-72
2023/07/08 10:37:27;;;;;;;4.53;1.63;;;38.00;29.60;39.30;101057.00;;;;4971987;28;92875;-73
2023/07/08 10:40:22;;;;;;;1.88;1.25;;;38.30;29.50;39.80;101056.00;;;;4950015;28;94136;-72
2023/07/08 10:43:36;;;;;;;4.97;0.95;;;38.80;29.50;40.30;101058.00;;;;4950003;28;96559;-71
2023/07/08 10:46:54;;;;;;;2.15;1.23;;;39.20;29.40;40.50;101061.00;;;;4961142;28;92759;-72
2023/07/08 10:50:24;;;;;;;1.33;0.93;;;39.60;28.90;40.80;101061.00;;;;4942056;28;92957;-71
2023/07/08 10:53:08;;;;;;;3.20;1.42;;;39.80;28.60;40.90;101056.00;;;;4960817;28;93052;-72
2023/07/08 10:55:57;;;;;;;1.90;0.95;;;40.00;28.20;40.90;101057.00;;;;4959390;28;92909;-72
2023/07/08 10:58:44;;;;;;;1.73;0.90;;;40.10;28.20;41.20;101049.00;;;;4947354;28;109615;-70